createdAt,value
2017-01-23T00:00:40.908Z,90.1
2017-01-23T00:01:43.852Z,90.1
2017-01-23T00:02:46.800Z,90.1
2017-01-23T00:03:49.751Z,90.1
2017-01-23T00:04:53.196Z,90.1
2017-01-23T00:05:56.143Z,90.1
2017-01-23T00:06:59.157Z,90.1
2017-01-23T00:08:02.103Z,90.1
2017-01-23T00:09:05.047Z,90.1
2017-01-23T00:10:08.501Z,90.1
2017-01-23T00:11:11.462Z,90.1
2017-01-23T00:12:14.415Z,90.1
2017-01-23T00:13:17.363Z,90.1
2017-01-23T00:14:20.811Z,90.1
2017-01-23T00:15:23.756Z,90.1
2017-01-23T00:16:26.739Z,90.1
2017-01-23T00:17:29.682Z,90.1
2017-01-23T00:18:33.129Z,90.1
2017-01-23T00:19:36.071Z,90
2017-01-23T00:20:39.016Z,90
2017-01-23T00:21:41.958Z,90
2017-01-23T00:22:45.404Z,90
2017-01-23T00:23:48.346Z,90
2017-01-23T00:24:51.288Z,90
2017-01-23T00:25:54.931Z,90
2017-01-23T00:26:57.375Z,90
2017-01-23T00:28:00.323Z,90
2017-01-23T00:29:03.775Z,90
2017-01-23T00:30:06.723Z,90
2017-01-23T00:31:09.664Z,90
2017-01-23T00:32:12.612Z,90
2017-01-23T00:33:16.063Z,90
2017-01-23T00:34:19.006Z,89.9
2017-01-23T00:35:21.951Z,89.9
2017-01-23T00:36:24.896Z,89.9
2017-01-23T00:37:28.365Z,89.9
2017-01-23T00:39:34.219Z,89.9
2017-01-23T00:40:37.165Z,89.9
2017-01-23T00:41:40.616Z,89.9
2017-01-23T00:42:43.562Z,89.9
2017-01-23T00:43:46.510Z,89.9
2017-01-23T00:44:49.451Z,89.9
2017-01-23T00:45:52.902Z,89.9
2017-01-23T00:46:55.848Z,89.9
2017-01-23T00:47:58.792Z,89.9
2017-01-23T00:49:01.738Z,89.9
2017-01-23T00:50:05.183Z,89.8
2017-01-23T00:51:08.129Z,89.8
2017-01-23T00:52:11.076Z,89.8
2017-01-23T00:53:14.023Z,89.8
2017-01-23T00:54:17.472Z,89.8
2017-01-23T00:55:20.418Z,89.8
2017-01-23T00:56:23.359Z,89.8
2017-01-23T00:57:26.303Z,89.8
2017-01-23T00:58:29.752Z,89.8
2017-01-23T00:59:32.766Z,89.8
2017-01-23T01:00:35.710Z,89.8
2017-01-23T01:01:38.655Z,89.8
2017-01-23T01:02:41.611Z,89.8
2017-01-23T01:03:45.063Z,89.8
2017-01-23T01:04:48.009Z,89.8
2017-01-23T01:05:50.954Z,89.8
2017-01-23T01:06:53.897Z,89.8
2017-01-23T01:07:57.348Z,89.8
2017-01-23T01:09:00.289Z,89.8
2017-01-23T01:10:03.235Z,89.8
2017-01-23T01:11:06.182Z,89.8
2017-01-23T01:12:09.631Z,89.8
2017-01-23T01:13:12.578Z,89.8
2017-01-23T01:14:15.527Z,89.7
2017-01-23T01:15:18.472Z,89.7
2017-01-23T01:16:21.918Z,89.7
2017-01-23T01:17:24.864Z,89.7
2017-01-23T01:18:27.807Z,89.7
2017-01-23T01:19:30.752Z,89.7
2017-01-23T01:20:34.194Z,89.7
2017-01-23T01:21:37.145Z,89.7
2017-01-23T01:22:40.090Z,89.7
2017-01-23T01:23:43.035Z,89.7
2017-01-23T01:25:49.395Z,89.6
2017-01-23T01:26:52.338Z,89.6
2017-01-23T01:27:55.284Z,89.6
2017-01-23T01:28:58.736Z,89.6
2017-01-23T01:30:01.679Z,89.6
2017-01-23T01:31:04.624Z,89.6
2017-01-23T01:32:07.568Z,89.6
2017-01-23T01:33:11.020Z,89.6
2017-01-23T01:34:13.967Z,89.6
2017-01-23T01:35:16.909Z,89.5
2017-01-23T01:36:19.852Z,89.5
2017-01-23T01:37:23.303Z,89.5
2017-01-23T01:38:26.247Z,89.5
2017-01-23T01:39:29.192Z,89.5
2017-01-23T01:40:32.140Z,89.5
2017-01-23T01:41:35.087Z,89.5
2017-01-23T01:42:38.537Z,89.5
2017-01-23T01:43:41.489Z,89.5
2017-01-23T01:44:44.435Z,89.5
2017-01-23T01:45:47.382Z,89.5
2017-01-23T01:46:50.836Z,89.5
2017-01-23T01:47:53.780Z,89.5
2017-01-23T01:48:56.727Z,89.5
2017-01-23T01:49:59.696Z,89.5
2017-01-23T01:51:03.147Z,89.5
2017-01-23T01:52:06.116Z,89.5
2017-01-23T01:53:09.093Z,89.5
2017-01-23T01:54:12.043Z,89.5
2017-01-23T01:55:14.987Z,89.5
2017-01-23T01:56:18.442Z,89.5
2017-01-23T01:57:21.392Z,89.5
2017-01-23T01:58:24.367Z,89.5
2017-01-23T01:59:27.310Z,89.5
2017-01-23T02:00:30.255Z,89.5
2017-01-23T02:01:33.702Z,89.4
2017-01-23T02:02:36.649Z,89.4
2017-01-23T02:03:39.593Z,89.4
2017-01-23T02:04:42.538Z,89.4
2017-01-23T02:05:45.989Z,89.4
2017-01-23T02:06:48.936Z,89.4
2017-01-23T02:07:51.885Z,89.4
2017-01-23T02:08:54.895Z,89.4
2017-01-23T02:09:57.931Z,89.4
2017-01-23T02:11:00.877Z,89.4
2017-01-23T02:12:04.328Z,89.5
2017-01-23T02:14:10.183Z,89.5
2017-01-23T02:15:13.134Z,89.5
2017-01-23T02:16:16.586Z,89.4
2017-01-23T02:17:19.534Z,89.4
2017-01-23T02:18:22.482Z,89.4
2017-01-23T02:19:25.430Z,89.4
2017-01-23T02:20:28.882Z,89.4
2017-01-23T02:21:31.826Z,89.4
2017-01-23T02:22:34.771Z,89.5
2017-01-23T02:23:37.715Z,89.5
2017-01-23T02:24:41.166Z,89.5
2017-01-23T02:26:47.026Z,89.5
2017-01-23T02:27:49.973Z,89.5
2017-01-23T02:28:52.990Z,89.4
2017-01-23T02:29:56.441Z,89.4
2017-01-23T02:30:59.389Z,89.4
2017-01-23T02:32:02.335Z,89.4
2017-01-23T02:33:05.281Z,89.4
2017-01-23T02:34:08.756Z,89.4
2017-01-23T02:35:11.708Z,89.4
2017-01-23T02:37:17.565Z,89.4
2017-01-23T02:38:21.017Z,89.4
2017-01-23T02:39:23.964Z,89.4
2017-01-23T02:40:26.911Z,89.4
2017-01-23T02:41:29.856Z,89.4
2017-01-23T02:42:32.800Z,89.4
2017-01-23T02:43:36.244Z,89.4
2017-01-23T02:44:39.196Z,89.4
2017-01-23T02:45:42.165Z,89.4
2017-01-23T02:46:45.114Z,89.4
2017-01-23T02:47:48.567Z,89.4
2017-01-23T02:48:51.511Z,89.4
2017-01-23T02:49:54.463Z,89.4
2017-01-23T02:50:57.405Z,89.4
2017-01-23T02:52:00.853Z,89.4
2017-01-23T02:53:03.809Z,89.4
2017-01-23T02:54:06.752Z,89.4
2017-01-23T02:55:09.698Z,89.4
2017-01-23T02:56:12.651Z,89.4
2017-01-23T02:57:16.099Z,89.4
2017-01-23T02:58:19.111Z,89.4
2017-01-23T02:59:22.058Z,89.4
2017-01-23T03:00:25.072Z,89.4
2017-01-23T03:01:28.018Z,89.4
2017-01-23T03:02:31.467Z,89.4
2017-01-23T03:03:34.415Z,89.4
2017-01-23T03:04:37.364Z,89.4
2017-01-23T03:05:40.311Z,89.4
2017-01-23T03:06:43.450Z,89.4
2017-01-23T03:07:46.398Z,89.4
2017-01-23T03:08:49.845Z,89.4
2017-01-23T03:09:52.791Z,89.4
2017-01-23T03:10:55.737Z,89.4
2017-01-23T03:11:58.688Z,89.3
2017-01-23T03:13:01.664Z,89.3
2017-01-23T03:14:05.121Z,89.3
2017-01-23T03:15:08.065Z,89.3
2017-01-23T03:16:11.012Z,89.3
2017-01-23T03:17:13.958Z,89.3
2017-01-23T03:18:17.414Z,89.3
2017-01-23T03:19:20.366Z,89.3
2017-01-23T03:20:23.311Z,89.2
2017-01-23T03:21:26.259Z,89.2
2017-01-23T03:22:29.208Z,89.2
2017-01-23T03:23:32.663Z,89.2
2017-01-23T03:24:35.618Z,89.2
2017-01-23T03:25:38.567Z,89.1
2017-01-23T03:26:41.517Z,89.1
2017-01-23T03:27:44.967Z,89.1
2017-01-23T03:28:47.932Z,89.1
2017-01-23T03:29:50.881Z,89.1
2017-01-23T03:30:53.832Z,89
2017-01-23T03:31:56.780Z,89
2017-01-23T03:33:00.230Z,89
2017-01-23T03:34:03.177Z,89
2017-01-23T03:35:06.123Z,89
2017-01-23T03:36:09.071Z,89
2017-01-23T03:37:12.522Z,88.9
2017-01-23T03:38:15.495Z,88.9
2017-01-23T03:39:18.443Z,88.9
2017-01-23T03:40:21.388Z,88.9
2017-01-23T03:41:24.306Z,88.8
2017-01-23T03:42:27.416Z,88.9
2017-01-23T03:43:30.869Z,88.9
2017-01-23T03:44:33.821Z,88.9
2017-01-23T03:45:36.767Z,88.9
2017-01-23T03:46:39.714Z,88.8
2017-01-23T03:47:42.665Z,88.8
2017-01-23T03:48:46.114Z,88.8
2017-01-23T03:49:49.069Z,88.8
2017-01-23T03:50:52.017Z,88.8
2017-01-23T03:51:54.958Z,88.8
2017-01-23T03:52:58.405Z,88.8
2017-01-23T03:54:01.519Z,88.8
2017-01-23T03:55:04.468Z,88.8
2017-01-23T03:56:07.420Z,88.7
2017-01-23T03:57:10.529Z,88.7
2017-01-23T03:58:13.475Z,88.7
2017-01-23T03:59:16.423Z,88.7
2017-01-23T04:00:19.371Z,88.7
2017-01-23T04:01:22.820Z,88.7
2017-01-23T04:02:25.796Z,88.7
2017-01-23T04:03:28.743Z,88.6
2017-01-23T04:04:31.690Z,88.6
2017-01-23T04:05:35.139Z,88.6
2017-01-23T04:06:38.085Z,88.6
2017-01-23T04:07:41.036Z,88.6
2017-01-23T04:08:44.051Z,88.6
2017-01-23T04:10:50.411Z,88.5
2017-01-23T04:11:53.357Z,88.5
2017-01-23T04:12:56.306Z,88.5
2017-01-23T04:13:59.256Z,88.5
2017-01-23T04:15:02.199Z,88.5
2017-01-23T04:16:05.656Z,88.5
2017-01-23T04:17:08.602Z,88.5
2017-01-23T04:18:11.551Z,88.5
2017-01-23T04:19:14.504Z,88.5
2017-01-23T04:20:17.954Z,88.5
2017-01-23T04:21:20.902Z,88.5
2017-01-23T04:22:23.845Z,88.5
2017-01-23T04:23:26.795Z,88.5
2017-01-23T04:23:57.032Z,88.5
2017-01-23T04:24:29.782Z,88.5
2017-01-23T04:25:33.240Z,88.5
2017-01-23T04:26:36.188Z,88.5
2017-01-23T04:27:39.138Z,88.5
2017-01-23T04:28:42.168Z,88.5
2017-01-23T04:29:45.113Z,88.5
2017-01-23T04:30:48.053Z,88.5
2017-01-23T04:31:51.502Z,88.5
2017-01-23T04:32:54.456Z,88.5
2017-01-23T04:33:57.405Z,88.5
2017-01-23T04:35:00.521Z,88.5
2017-01-23T04:36:03.469Z,88.5
2017-01-23T04:37:06.417Z,88.5
2017-01-23T04:38:09.868Z,88.6
2017-01-23T04:39:12.813Z,88.6
2017-01-23T04:40:15.759Z,88.6
2017-01-23T04:41:18.708Z,88.6
2017-01-23T04:42:21.655Z,88.6
2017-01-23T04:43:25.101Z,88.6
2017-01-23T04:44:28.046Z,88.6
2017-01-23T04:45:30.988Z,88.6
2017-01-23T04:46:33.935Z,88.6
2017-01-23T04:47:37.387Z,88.6
2017-01-23T04:48:40.342Z,88.6
2017-01-23T04:49:43.287Z,88.6
2017-01-23T04:50:46.232Z,88.7
2017-01-23T04:51:49.684Z,88.7
2017-01-23T04:52:52.634Z,88.7
2017-01-23T04:53:55.581Z,88.7
2017-01-23T04:54:58.527Z,88.7
2017-01-23T04:56:01.473Z,88.7
2017-01-23T04:57:04.927Z,88.7
2017-01-23T04:58:07.875Z,88.7
2017-01-23T04:59:10.821Z,88.8
2017-01-23T05:00:13.769Z,88.8
2017-01-23T05:01:16.717Z,88.8
2017-01-23T05:02:20.170Z,88.8
2017-01-23T05:03:23.122Z,88.8
2017-01-23T05:04:26.066Z,88.8
2017-01-23T05:05:29.008Z,88.8
2017-01-23T05:06:32.459Z,88.8
2017-01-23T05:07:35.411Z,88.9
2017-01-23T05:08:38.360Z,88.9
2017-01-23T05:09:41.310Z,88.9
2017-01-23T05:10:44.263Z,88.9
2017-01-23T05:11:47.715Z,88.9
2017-01-23T05:12:50.661Z,88.9
2017-01-23T05:13:53.610Z,88.9
2017-01-23T05:14:56.560Z,88.9
2017-01-23T05:15:59.510Z,88.9
2017-01-23T05:17:02.958Z,88.9
2017-01-23T05:19:08.813Z,88.9
2017-01-23T05:20:11.755Z,89
2017-01-23T05:21:15.225Z,89
2017-01-23T05:22:18.171Z,89
2017-01-23T05:23:21.115Z,89
2017-01-23T05:24:24.058Z,89
2017-01-23T05:25:27.509Z,89
2017-01-23T05:26:30.455Z,89
2017-01-23T05:27:33.399Z,89
2017-01-23T05:28:36.349Z,89
2017-01-23T05:29:39.300Z,89
2017-01-23T05:30:42.314Z,89.1
2017-01-23T05:31:45.760Z,89.1
2017-01-23T05:32:48.711Z,89.1
2017-01-23T05:33:51.659Z,89.1
2017-01-23T05:34:54.607Z,89.1
2017-01-23T05:35:58.055Z,89.1
2017-01-23T05:37:00.999Z,89.1
2017-01-23T05:38:03.943Z,89.1
2017-01-23T05:39:06.894Z,89.1
2017-01-23T05:40:09.839Z,89.1
2017-01-23T05:41:13.291Z,89.1
2017-01-23T05:42:16.233Z,89.1
2017-01-23T05:43:19.181Z,89.1
2017-01-23T05:44:22.135Z,89.1
2017-01-23T05:45:25.149Z,89.1
2017-01-23T05:46:28.598Z,89.1
2017-01-23T05:47:31.547Z,89.1
2017-01-23T05:48:34.493Z,89.2
2017-01-23T05:49:37.435Z,89.2
2017-01-23T05:50:40.882Z,89.2
2017-01-23T05:51:43.827Z,89.2
2017-01-23T05:52:46.774Z,89.2
2017-01-23T05:53:49.724Z,89.2
2017-01-23T05:54:52.704Z,89.2
2017-01-23T05:55:56.158Z,89.2
2017-01-23T05:56:59.109Z,89.2
2017-01-23T05:58:02.056Z,89.2
2017-01-23T05:59:05.008Z,89.2
2017-01-23T06:00:07.951Z,89.3
2017-01-23T06:01:11.467Z,89.3
2017-01-23T06:03:17.328Z,89.3
2017-01-23T06:04:20.272Z,89.3
2017-01-23T06:05:23.221Z,89.3
2017-01-23T06:06:26.672Z,89.3
2017-01-23T06:07:29.617Z,89.3
2017-01-23T06:08:32.565Z,89.3
2017-01-23T06:09:35.517Z,89.3
2017-01-23T06:10:38.982Z,89.3
2017-01-23T06:12:44.845Z,89.3
2017-01-23T06:13:47.791Z,89.3
2017-01-23T06:14:51.238Z,89.3
2017-01-23T06:15:54.187Z,89.4
2017-01-23T06:16:57.135Z,89.4
2017-01-23T06:18:00.092Z,89.4
2017-01-23T06:19:03.037Z,89.4
2017-01-23T06:21:09.393Z,89.4
2017-01-23T06:22:12.340Z,89.4
2017-01-23T06:23:15.285Z,89.4
2017-01-23T06:24:18.733Z,89.4
2017-01-23T06:25:21.679Z,89.4
2017-01-23T06:26:24.623Z,89.5
2017-01-23T06:27:27.564Z,89.5
2017-01-23T06:28:31.009Z,89.5
2017-01-23T06:29:33.951Z,89.5
2017-01-23T06:30:36.896Z,89.5
2017-01-23T06:31:39.841Z,89.5
2017-01-23T06:32:43.458Z,89.5
2017-01-23T06:33:45.900Z,89.5
2017-01-23T06:34:49.347Z,89.5
2017-01-23T06:35:52.294Z,89.5
2017-01-23T06:36:55.239Z,89.5
2017-01-23T06:37:58.191Z,89.5
2017-01-23T06:39:01.640Z,89.5
2017-01-23T06:40:04.583Z,89.5
2017-01-23T06:41:07.593Z,89.5
2017-01-23T06:42:10.548Z,89.5
2017-01-23T06:43:13.504Z,89.5
2017-01-23T06:44:16.950Z,89.5
2017-01-23T06:45:19.900Z,89.6
2017-01-23T06:46:22.843Z,89.5
2017-01-23T06:47:25.787Z,89.5
2017-01-23T06:48:28.738Z,89.5
2017-01-23T06:49:32.189Z,89.6
2017-01-23T06:50:35.140Z,89.6
2017-01-23T06:51:38.089Z,89.6
2017-01-23T06:52:41.039Z,89.6
2017-01-23T06:53:44.487Z,89.6
2017-01-23T06:54:47.433Z,89.6
2017-01-23T06:55:50.384Z,89.6
2017-01-23T06:56:53.329Z,89.6
2017-01-23T06:57:56.276Z,89.6
2017-01-23T06:58:59.729Z,89.6
2017-01-23T07:00:02.673Z,89.6
2017-01-23T07:01:05.619Z,89.6
2017-01-23T07:02:08.564Z,89.6
2017-01-23T07:03:12.015Z,89.6
2017-01-23T07:04:14.959Z,89.6
2017-01-23T07:05:17.898Z,89.6
2017-01-23T07:06:20.846Z,89.6
2017-01-23T07:07:24.293Z,89.6
2017-01-23T07:08:27.303Z,89.6
2017-01-23T07:09:30.244Z,89.6
2017-01-23T07:10:33.208Z,89.6
2017-01-23T07:11:36.151Z,89.7
2017-01-23T07:12:39.611Z,89.7
2017-01-23T07:13:42.554Z,89.7
2017-01-23T07:14:45.500Z,89.7
2017-01-23T07:15:48.443Z,89.7
2017-01-23T07:16:51.893Z,89.7
2017-01-23T07:17:54.910Z,89.7
2017-01-23T07:18:57.855Z,89.7
2017-01-23T07:20:00.795Z,89.7
2017-01-23T07:21:03.741Z,89.7
2017-01-23T07:22:07.191Z,89.7
2017-01-23T07:23:10.143Z,89.7
2017-01-23T07:24:13.089Z,89.7
2017-01-23T07:25:16.307Z,89.7
2017-01-23T07:26:19.318Z,89.8
2017-01-23T07:27:22.260Z,89.7
2017-01-23T07:28:25.203Z,89.7
2017-01-23T07:29:28.648Z,89.8
2017-01-23T07:30:31.600Z,89.8
2017-01-23T07:31:34.543Z,89.8
2017-01-23T07:32:37.489Z,89.8
2017-01-23T07:33:40.442Z,89.8
2017-01-23T07:34:43.894Z,89.8
2017-01-23T07:35:46.843Z,89.8
2017-01-23T07:36:49.787Z,89.8
2017-01-23T07:38:56.142Z,89.8
2017-01-23T07:39:59.085Z,89.8
2017-01-23T07:41:02.030Z,89.9
2017-01-23T07:42:04.979Z,89.9
2017-01-23T07:43:08.428Z,89.9
2017-01-23T07:44:11.371Z,89.9
2017-01-23T07:45:14.318Z,89.9
2017-01-23T07:46:17.261Z,89.9
2017-01-23T07:47:20.708Z,89.9
2017-01-23T07:48:23.651Z,89.9
2017-01-23T07:49:26.605Z,89.9
2017-01-23T07:50:29.546Z,89.9
2017-01-23T07:51:32.999Z,89.9
2017-01-23T07:52:35.941Z,89.9
2017-01-23T07:53:38.887Z,89.9
2017-01-23T07:54:41.831Z,89.9
2017-01-23T07:56:48.191Z,90
2017-01-23T07:57:51.303Z,90
2017-01-23T07:58:54.247Z,90
2017-01-23T07:59:57.200Z,90
2017-01-23T08:01:00.141Z,90
2017-01-23T08:02:03.592Z,90
2017-01-23T08:03:06.537Z,90
2017-01-23T08:04:09.479Z,90
2017-01-23T08:05:12.426Z,90
2017-01-23T08:06:15.872Z,90
2017-01-23T08:07:18.818Z,90
2017-01-23T08:08:21.779Z,90
2017-01-23T08:09:24.737Z,90
2017-01-23T08:10:28.185Z,90
2017-01-23T08:11:31.136Z,90
2017-01-23T08:12:34.079Z,90
2017-01-23T08:13:37.028Z,90
2017-01-23T08:14:40.474Z,90
2017-01-23T08:15:43.415Z,90
2017-01-23T08:16:46.357Z,90
2017-01-23T08:17:49.471Z,90
2017-01-23T08:18:52.411Z,90.1
2017-01-23T08:19:55.355Z,90.1
2017-01-23T08:20:58.802Z,90.1
2017-01-23T08:22:01.749Z,90.1
2017-01-23T08:23:04.692Z,90.1
2017-01-23T08:24:07.640Z,90.1
2017-01-23T08:25:11.094Z,90.1
2017-01-23T08:26:14.038Z,90.1
2017-01-23T08:27:16.980Z,90.1
2017-01-23T08:28:19.933Z,90.1
2017-01-23T08:29:23.377Z,90.1
2017-01-23T08:30:26.321Z,90.1
2017-01-23T08:31:29.274Z,90.1
2017-01-23T08:32:32.216Z,90.2
2017-01-23T08:33:35.665Z,90.2
2017-01-23T08:34:38.609Z,90.2
2017-01-23T08:35:41.721Z,90.2
2017-01-23T08:36:44.665Z,90.2
2017-01-23T08:37:47.615Z,90.2
2017-01-23T08:38:51.058Z,90.2
2017-01-23T08:39:54.001Z,90.2
2017-01-23T08:40:56.947Z,90.2
2017-01-23T08:41:59.892Z,90.2
2017-01-23T08:43:03.343Z,90.2
2017-01-23T08:44:06.284Z,90.2
2017-01-23T08:45:09.226Z,90.2
2017-01-23T08:46:12.169Z,90.3
2017-01-23T08:47:15.614Z,90.3
2017-01-23T08:48:18.557Z,90.3
2017-01-23T08:49:21.506Z,90.3
2017-01-23T08:50:24.451Z,90.3
2017-01-23T08:51:27.460Z,90.3
2017-01-23T08:52:30.909Z,90.3
2017-01-23T08:53:33.916Z,90.3
2017-01-23T08:54:36.862Z,90.3
2017-01-23T08:55:39.806Z,90.3
2017-01-23T08:56:43.255Z,90.3
2017-01-23T08:57:46.202Z,90.3
2017-01-23T08:58:49.144Z,90.3
2017-01-23T08:59:52.092Z,90.3
2017-01-23T09:00:55.542Z,90.3
2017-01-23T09:01:58.485Z,90.3
2017-01-23T09:03:01.428Z,90.3
2017-01-23T09:04:04.540Z,90.4
2017-01-23T09:05:07.485Z,90.4
2017-01-23T09:06:10.933Z,90.4
2017-01-23T09:07:13.879Z,90.4
2017-01-23T09:08:16.825Z,90.4
2017-01-23T09:09:19.770Z,90.4
2017-01-23T09:10:23.225Z,90.4
2017-01-23T09:11:26.167Z,90.4
2017-01-23T09:12:29.143Z,90.4
2017-01-23T09:13:32.093Z,90.4
2017-01-23T09:14:35.542Z,90.4
2017-01-23T09:15:38.489Z,90.4
2017-01-23T09:16:41.440Z,90.4
2017-01-23T09:17:44.388Z,90.4
2017-01-23T09:18:47.842Z,90.4
2017-01-23T09:19:50.789Z,90.4
2017-01-23T09:20:53.732Z,90.4
2017-01-23T09:21:56.673Z,90.4
2017-01-23T09:23:00.124Z,90.4
2017-01-23T09:24:03.072Z,90.5
2017-01-23T09:25:06.021Z,90.5
2017-01-23T09:26:08.963Z,90.5
2017-01-23T09:27:12.411Z,90.5
2017-01-23T09:28:15.369Z,90.5
2017-01-23T09:29:18.313Z,90.5
2017-01-23T09:30:21.258Z,90.5
2017-01-23T09:31:24.703Z,90.5
2017-01-23T09:32:27.647Z,90.5
2017-01-23T09:33:30.614Z,90.5
2017-01-23T09:34:33.562Z,90.5
2017-01-23T09:35:37.008Z,90.5
2017-01-23T09:36:39.953Z,90.6
2017-01-23T09:37:42.904Z,90.5
2017-01-23T09:38:45.853Z,90.5
2017-01-23T09:39:49.305Z,90.5
2017-01-23T09:40:52.244Z,90.5
2017-01-23T09:41:55.190Z,90.6
2017-01-23T09:42:58.141Z,90.6
2017-01-23T09:44:01.591Z,90.6
2017-01-23T09:45:04.537Z,90.6
2017-01-23T09:46:07.484Z,90.6
2017-01-23T09:47:10.429Z,90.6
2017-01-23T09:48:13.882Z,90.6
2017-01-23T09:49:16.841Z,90.6
2017-01-23T09:50:19.785Z,90.6
2017-01-23T09:51:22.728Z,90.6
2017-01-23T09:53:29.092Z,90.7
2017-01-23T09:54:32.041Z,90.7
2017-01-23T09:55:35.489Z,90.7
2017-01-23T09:56:38.438Z,90.7
2017-01-23T09:57:41.383Z,90.7
2017-01-23T09:58:44.324Z,90.7
2017-01-23T10:00:50.677Z,90.7
2017-01-23T10:01:53.624Z,90.7
2017-01-23T10:02:56.569Z,90.7
2017-01-23T10:04:00.021Z,90.7
2017-01-23T10:05:02.964Z,90.7
2017-01-23T10:06:05.905Z,90.7
2017-01-23T10:07:08.845Z,90.7
2017-01-23T10:08:12.300Z,90.7
2017-01-23T10:09:15.245Z,90.7
2017-01-23T10:10:18.189Z,90.7
2017-01-23T10:11:21.638Z,90.7
2017-01-23T10:12:24.585Z,90.7
2017-01-23T10:13:27.527Z,90.7
2017-01-23T10:15:33.882Z,90.7
2017-01-23T10:16:36.829Z,90.7
2017-01-23T10:17:39.780Z,90.7
2017-01-23T10:18:42.723Z,90.7
2017-01-23T10:19:46.168Z,90.8
2017-01-23T10:20:49.108Z,90.8
2017-01-23T10:21:52.053Z,90.8
2017-01-23T10:22:55.496Z,90.8
2017-01-23T10:23:58.465Z,90.8
2017-01-23T10:25:01.412Z,90.8
2017-01-23T10:26:04.419Z,90.8
2017-01-23T10:27:07.368Z,90.8
2017-01-23T10:28:10.815Z,90.8
2017-01-23T10:29:13.762Z,90.8
2017-01-23T10:30:16.706Z,90.8
2017-01-23T10:31:19.645Z,90.8
2017-01-23T10:32:23.091Z,90.9
2017-01-23T10:33:26.037Z,90.9
2017-01-23T10:34:28.983Z,90.9
2017-01-23T10:35:32.429Z,90.9
2017-01-23T10:36:35.370Z,90.9
2017-01-23T10:37:38.310Z,90.9
2017-01-23T10:38:41.255Z,90.9
2017-01-23T10:39:44.724Z,90.9
2017-01-23T10:41:50.578Z,90.9
2017-01-23T10:42:53.530Z,90.9
2017-01-23T10:43:56.979Z,90.9
2017-01-23T10:44:59.919Z,90.9
2017-01-23T10:46:02.869Z,90.9
2017-01-23T10:47:06.322Z,90.9
2017-01-23T10:48:09.265Z,90.9
2017-01-23T10:49:12.208Z,91
2017-01-23T10:50:15.153Z,91
2017-01-23T10:51:18.602Z,91
2017-01-23T10:52:21.550Z,91
2017-01-23T10:53:24.503Z,91
2017-01-23T10:54:27.450Z,91
2017-01-23T10:55:30.905Z,91
2017-01-23T10:56:33.850Z,91
2017-01-23T10:57:36.798Z,91
2017-01-23T10:58:40.242Z,91
2017-01-23T10:59:43.187Z,91
2017-01-23T11:00:46.133Z,91
2017-01-23T11:01:49.081Z,91
2017-01-23T11:03:55.434Z,91
2017-01-23T11:04:58.407Z,91
2017-01-23T11:06:01.352Z,91
2017-01-23T11:08:07.709Z,91
2017-01-23T11:09:10.659Z,91
2017-01-23T11:10:14.106Z,91
2017-01-23T11:11:17.115Z,91
2017-01-23T11:12:20.061Z,91
2017-01-23T11:13:23.007Z,91
2017-01-23T11:14:26.458Z,91
2017-01-23T11:16:32.377Z,91
2017-01-23T11:17:35.321Z,91
2017-01-23T11:18:38.771Z,91
2017-01-23T11:19:41.721Z,91
2017-01-23T11:20:44.668Z,91.1
2017-01-23T11:21:47.612Z,91.1
2017-01-23T11:22:51.068Z,91.1
2017-01-23T11:23:54.015Z,91.1
2017-01-23T11:24:56.960Z,91.1
2017-01-23T11:26:00.409Z,91.1
2017-01-23T11:27:03.352Z,91.1
2017-01-23T11:28:06.301Z,91.1
2017-01-23T11:29:09.246Z,91.1
2017-01-23T11:30:12.693Z,91.1
2017-01-23T11:31:15.640Z,91.1
2017-01-23T11:32:18.590Z,91.1
2017-01-23T11:34:24.953Z,91.1
2017-01-23T11:35:27.896Z,91.1
2017-01-23T11:36:30.840Z,91.1
2017-01-23T11:37:34.301Z,91.1
2017-01-23T11:38:37.415Z,91.1
2017-01-23T11:39:40.365Z,91.2
2017-01-23T11:40:43.312Z,91.2
2017-01-23T11:41:46.258Z,91.2
2017-01-23T11:42:49.706Z,91.2
2017-01-23T11:43:52.650Z,91.2
2017-01-23T11:44:55.598Z,91.2
2017-01-23T11:45:58.544Z,91.2
2017-01-23T11:47:02.054Z,91.2
2017-01-23T11:48:04.998Z,91.2
2017-01-23T11:49:07.941Z,91.2
2017-01-23T11:50:10.888Z,91.2
2017-01-23T11:51:14.339Z,91.2
2017-01-23T11:52:17.287Z,91.2
2017-01-23T11:53:20.233Z,91.2
2017-01-23T11:54:23.678Z,91.2
2017-01-23T11:55:26.631Z,91.2
2017-01-23T11:56:29.579Z,91.2
2017-01-23T11:57:32.523Z,91.2
2017-01-23T11:58:35.972Z,91.2
2017-01-23T11:59:38.912Z,91.2
2017-01-23T12:00:41.855Z,91.2
2017-01-23T12:01:45.298Z,91.2
2017-01-23T12:02:48.240Z,91.3
2017-01-23T12:03:51.186Z,91.2
2017-01-23T12:04:54.130Z,91.2
2017-01-23T12:05:57.579Z,91.2
2017-01-23T12:07:00.562Z,91.2
2017-01-23T12:08:03.505Z,91.2
2017-01-23T12:09:06.474Z,91.2
2017-01-23T12:10:09.928Z,91.3
2017-01-23T12:11:12.876Z,91.3
2017-01-23T12:12:15.819Z,91.3
2017-01-23T12:13:18.939Z,91.3
2017-01-23T12:14:21.886Z,91.3
2017-01-23T12:15:25.337Z,91.3
2017-01-23T12:16:28.286Z,91.3
2017-01-23T12:17:31.228Z,91.3
2017-01-23T12:18:34.672Z,91.3
2017-01-23T12:19:37.614Z,91.3
2017-01-23T12:20:40.556Z,91.3
2017-01-23T12:21:43.500Z,91.4
2017-01-23T12:22:46.947Z,91.4
2017-01-23T12:23:49.897Z,91.4
2017-01-23T12:24:52.845Z,91.4
2017-01-23T12:25:56.289Z,91.4
2017-01-23T12:26:59.238Z,91.4
2017-01-23T12:28:02.196Z,91.4
2017-01-23T12:29:05.140Z,91.4
2017-01-23T12:30:08.597Z,91.4
2017-01-23T12:31:11.543Z,91.4
2017-01-23T12:32:14.490Z,91.4
2017-01-23T12:33:17.434Z,91.4
2017-01-23T12:34:20.880Z,91.4
2017-01-23T12:35:23.827Z,91.4
2017-01-23T12:36:26.773Z,91.4
2017-01-23T12:37:30.221Z,91.4
2017-01-23T12:38:33.170Z,91.4
2017-01-23T12:39:36.122Z,91.4
2017-01-23T12:40:39.061Z,91.4
2017-01-23T12:41:42.573Z,91.4
2017-01-23T12:42:45.518Z,91.4
2017-01-23T12:43:48.467Z,91.4
2017-01-23T12:44:51.409Z,91.4
2017-01-23T12:45:54.860Z,91.4
2017-01-23T12:46:57.811Z,91.4
2017-01-23T12:48:00.760Z,91.4
2017-01-23T12:49:04.206Z,91.4
2017-01-23T12:50:07.149Z,91.4
2017-01-23T12:51:10.158Z,91.4
2017-01-23T12:52:13.106Z,91.4
2017-01-23T12:53:16.557Z,91.4
2017-01-23T12:54:19.503Z,91.4
2017-01-23T12:55:22.443Z,91.4
2017-01-23T12:56:25.395Z,91.4
2017-01-23T12:57:28.847Z,91.5
2017-01-23T12:58:31.792Z,91.5
2017-01-23T12:59:34.733Z,91.5
2017-01-23T13:00:38.181Z,91.5
2017-01-23T13:01:41.137Z,91.5
2017-01-23T13:02:44.086Z,91.5
2017-01-23T13:03:47.092Z,91.5
2017-01-23T13:04:50.541Z,91.5
2017-01-23T13:06:56.396Z,91.5
2017-01-23T13:07:59.365Z,91.5
2017-01-23T13:09:02.821Z,91.5
2017-01-23T13:10:05.769Z,91.5
2017-01-23T13:11:08.713Z,91.5
2017-01-23T13:12:12.164Z,91.5
2017-01-23T13:13:15.143Z,91.5
2017-01-23T13:14:18.089Z,91.5
2017-01-23T13:15:21.043Z,91.5
2017-01-23T13:16:24.487Z,91.5
2017-01-23T13:17:27.428Z,91.5
2017-01-23T13:18:30.369Z,91.5
2017-01-23T13:19:33.313Z,91.5
2017-01-23T13:20:36.763Z,91.5
2017-01-23T13:21:39.713Z,91.5
2017-01-23T13:22:42.663Z,91.5
2017-01-23T13:23:46.114Z,91.5
2017-01-23T13:24:49.061Z,91.5
2017-01-23T13:25:52.009Z,91.5
2017-01-23T13:26:54.962Z,91.5
2017-01-23T13:27:58.412Z,91.5
2017-01-23T13:29:01.355Z,91.5
2017-01-23T13:30:04.305Z,91.5
2017-01-23T13:31:07.255Z,91.5
2017-01-23T13:32:10.704Z,91.5
2017-01-23T13:33:13.653Z,91.5
2017-01-23T13:34:16.597Z,91.5
2017-01-23T13:35:20.044Z,91.5
2017-01-23T13:36:22.992Z,91.5
2017-01-23T13:37:25.935Z,91.5
2017-01-23T13:38:28.882Z,91.5
2017-01-23T13:39:32.327Z,91.5
2017-01-23T13:41:38.181Z,91.5
2017-01-23T13:42:41.625Z,91.6
2017-01-23T13:43:44.567Z,91.5
2017-01-23T13:44:47.509Z,91.5
2017-01-23T13:45:50.974Z,91.6
2017-01-23T13:46:53.916Z,91.5
2017-01-23T13:47:56.864Z,91.5
2017-01-23T13:48:59.804Z,91.6
2017-01-23T13:50:03.250Z,91.5
2017-01-23T13:51:06.194Z,91.5
2017-01-23T13:52:09.143Z,91.5
2017-01-23T13:53:12.590Z,91.5
2017-01-23T13:54:15.532Z,91.5
2017-01-23T13:55:18.475Z,91.6
2017-01-23T13:56:21.424Z,91.6
2017-01-23T13:57:24.873Z,91.6
2017-01-23T13:58:27.818Z,91.6
2017-01-23T13:59:30.764Z,91.6
2017-01-23T14:00:34.210Z,91.6
2017-01-23T14:01:37.153Z,91.6
2017-01-23T14:02:40.095Z,91.6
2017-01-23T14:03:43.040Z,91.6
2017-01-23T14:04:46.487Z,91.6
2017-01-23T14:05:49.435Z,91.7
2017-01-23T14:06:52.380Z,91.7
2017-01-23T14:07:55.827Z,91.7
2017-01-23T14:08:58.831Z,91.7
2017-01-23T14:10:01.775Z,91.7
2017-01-23T14:11:04.717Z,91.7
2017-01-23T14:13:11.077Z,91.7
2017-01-23T14:14:14.095Z,91.7
2017-01-23T14:15:17.037Z,91.7
2017-01-23T14:16:20.480Z,91.7
2017-01-23T14:18:26.329Z,91.7
2017-01-23T14:19:29.784Z,91.7
2017-01-23T14:20:32.791Z,91.7
2017-01-23T14:21:35.733Z,91.6
2017-01-23T14:22:38.679Z,91.7
2017-01-23T14:23:42.123Z,91.6
2017-01-23T14:24:45.065Z,91.7
2017-01-23T14:25:48.010Z,91.7
2017-01-23T14:26:50.959Z,91.6
2017-01-23T14:27:54.411Z,91.6
2017-01-23T14:28:57.355Z,91.6